Time;durP1;ratioP1;P1;durP2;ratioP2;P2;SDS_P1;SDS_P2;PMS_P1;PMS_P2;Temp;Humidity;BMP_temperature;BMP_pressure;BME280_temperature;BME280_humidity;BME280_pressure;Samples;Min_cycle;Max_cycle;Signal;HPM_P1;HPM_P2
2022/03/10 00:00:47;;;;;;;40.00;18.83;;;;;;;0.71;100.00;99687.94;5051011;28;20683;-79
2022/03/10 00:03:14;;;;;;;73.83;26.73;;;;;;;0.88;100.00;99724.81;5050628;28;20203;-79
2022/03/10 00:05:41;;;;;;;41.97;18.30;;;;;;;1.07;100.00;99793.22;5050438;28;20239;-78
2022/03/10 00:08:09;;;;;;;35.20;17.23;;;;;;;0.90;100.00;99766.56;5050400;28;20197;-79
2022/03/10 00:10:36;;;;;;;34.80;14.83;;;;;;;1.02;100.00;99810.16;5050791;28;20690;-79
2022/03/10 00:13:03;;;;;;;31.93;15.60;;;;;;;1.01;100.00;99805.06;5050659;28;20283;-79
2022/03/10 00:15:30;;;;;;;34.23;14.03;;;;;;;0.99;100.00;99801.63;5050410;28;20584;-80
2022/03/10 00:17:56;;;;;;;57.70;20.63;;;;;;;0.67;100.00;99765.38;5050856;28;20180;-79
2022/03/10 00:20:24;;;;;;;31.47;14.97;;;;;;;0.96;100.00;99814.34;5050430;28;20203;-79
2022/03/10 00:22:52;;;;;;;29.93;12.83;;;;;;;0.90;100.00;99802.34;5051018;28;20660;-80
2022/03/10 00:25:21;;;;;;;29.33;13.87;;;;;;;0.79;100.00;99769.81;5050503;28;20196;-79
2022/03/10 00:27:48;;;;;;;22.17;10.80;;;;;;;0.99;100.00;99811.84;5050320;28;20203;-79
2022/03/10 00:30:16;;;;;;;29.10;12.67;;;;;;;0.81;100.00;99780.88;5050513;28;20573;-79
2022/03/10 00:32:45;;;;;;;19.43;10.73;;;;;;;0.85;100.00;99796.31;5050242;28;20200;-80
2022/03/10 00:35:15;;;;;;;19.87;10.33;;;;;;;1.00;100.00;99816.13;5050418;28;20305;-80
2022/03/10 00:37:42;;;;;;;14.87;9.53;;;;;;;0.69;100.00;99756.88;5050565;28;20200;-80
2022/03/10 00:40:10;;;;;;;23.17;11.50;;;;;;;1.00;100.00;99811.88;5050150;28;20195;-80
2022/03/10 00:42:39;;;;;;;37.47;13.87;;;;;;;0.76;100.00;99780.84;5050034;28;20283;-80
2022/03/10 00:45:07;;;;;;;28.50;13.20;;;;;;;0.72;100.00;99771.41;5050056;28;20247;-80
2022/03/10 00:47:35;;;;;;;26.00;11.60;;;;;;;1.01;100.00;99807.63;5049536;28;20231;-81
2022/03/10 00:50:02;;;;;;;44.87;16.20;;;;;;;0.78;100.00;99768.09;5049860;28;20201;-79
2022/03/10 00:52:29;;;;;;;14.80;8.47;;;;;;;0.88;100.00;99780.16;5050032;28;20249;-80
2022/03/10 00:54:56;;;;;;;24.30;11.07;;;;;;;1.01;100.00;99811.03;5050212;28;20205;-80
2022/03/10 00:57:23;;;;;;;15.67;8.27;;;;;;;0.54;100.00;99725.16;5050251;28;20204;-79
2022/03/10 00:59:51;;;;;;;12.10;7.87;;;;;;;1.04;100.00;99812.75;5050629;28;20204;-81
2022/03/10 01:02:18;;;;;;;18.60;10.10;;;;;;;0.47;100.00;99721.66;5050177;28;20199;-78
2022/03/10 01:04:45;;;;;;;24.40;11.30;;;;;;;0.98;100.00;99803.31;5050161;28;20196;-78
2022/03/10 01:07:12;;;;;;;18.00;9.30;;;;;;;1.11;100.00;99799.22;5053879;28;20226;-79
2022/03/10 01:09:39;;;;;;;25.47;11.10;;;;;;;1.07;100.00;99792.34;5053292;28;20200;-77
2022/03/10 01:12:07;;;;;;;21.30;10.27;;;;;;;0.95;100.00;99771.72;5053167;28;20200;-78
2022/03/10 01:14:34;;;;;;;42.80;14.87;;;;;;;1.01;100.00;99792.28;5052984;28;20206;-80
2022/03/10 01:17:03;;;;;;;21.17;10.90;;;;;;;1.01;100.00;99790.59;5052984;28;20199;-80
2022/03/10 01:19:29;;;;;;;19.73;10.17;;;;;;;1.06;100.00;99791.50;5053099;28;20296;-80
2022/03/10 01:21:57;;;;;;;13.23;8.13;;;;;;;1.09;100.00;99795.78;5053468;28;20527;-80
2022/03/10 01:24:24;;;;;;;10.73;6.23;;;;;;;1.11;100.00;99801.78;5053390;28;20590;-79
2022/03/10 01:26:51;;;;;;;14.83;6.90;;;;;;;0.81;100.00;99768.13;5053246;28;20243;-79
2022/03/10 01:29:18;;;;;;;11.13;7.67;;;;;;;1.02;100.00;99804.19;5053142;28;20197;-79
2022/03/10 01:31:45;;;;;;;12.73;7.70;;;;;;;0.70;100.00;99766.25;5053446;28;20203;-79
2022/03/10 01:34:13;;;;;;;34.37;13.53;;;;;;;0.93;100.00;99794.69;5053122;28;20593;-80
2022/03/10 01:36:40;;;;;;;18.97;8.67;;;;;;;0.95;100.00;99800.69;5053153;28;20191;-80
2022/03/10 01:39:07;;;;;;;34.10;12.77;;;;;;;0.93;100.00;99811.72;5052917;28;20214;-80
2022/03/10 01:41:35;;;;;;;31.53;12.53;;;;;;;0.89;100.00;99802.31;5052557;28;20229;-78
2022/03/10 01:44:05;;;;;;;16.10;8.03;;;;;;;0.68;100.00;99775.59;5053058;28;20207;-78
2022/03/10 01:46:32;;;;;;;22.20;9.60;;;;;;;0.63;100.00;99769.56;5052454;28;20236;-80
2022/03/10 01:49:00;;;;;;;19.23;9.80;;;;;;;0.83;100.00;99797.09;5052664;28;20195;-80
2022/03/10 01:51:29;;;;;;;20.80;9.20;;;;;;;0.46;100.00;99749.72;5052448;28;20692;-78
2022/03/10 01:53:56;;;;;;;7.00;5.57;;;;;;;0.39;100.00;99733.44;5052531;28;20196;-79
2022/03/10 01:56:24;;;;;;;11.03;7.57;;;;;;;0.78;100.00;99798.75;5052284;28;20685;-79
2022/03/10 01:58:53;;;;;;;16.00;8.77;;;;;;;0.72;100.00;99800.38;5052614;28;20592;-79
2022/03/10 02:01:21;;;;;;;15.13;6.97;;;;;;;0.78;100.00;99788.53;5052657;28;20566;-80
2022/03/10 02:03:47;;;;;;;8.33;5.70;;;;;;;0.91;100.00;99804.03;5052239;28;20207;-80
2022/03/10 02:06:16;;;;;;;7.23;5.10;;;;;;;0.92;99.15;99808.31;5052118;28;20226;-80
2022/03/10 02:11:29;;;;;;;22.97;10.23;;;;;;;0.99;99.58;99806.72;5052363;28;20200;-79
2022/03/10 02:13:56;;;;;;;8.77;6.10;;;;;;;1.06;99.36;99801.72;5052237;28;20197;-78
2022/03/10 02:19:08;;;;;;;6.50;5.73;;;;;;;1.01;99.24;99807.63;5051980;28;20195;-78
2022/03/10 02:21:36;;;;;;;23.00;11.30;;;;;;;1.02;100.00;99794.81;5051819;28;20193;-78
2022/03/10 02:24:05;;;;;;;8.80;5.67;;;;;;;1.05;98.70;99800.00;5051976;28;20197;-79
2022/03/10 02:26:32;;;;;;;15.43;7.90;;;;;;;0.97;99.79;99799.03;5052019;28;20223;-79
2022/03/10 02:28:59;;;;;;;50.27;18.67;;;;;;;1.07;100.00;99805.13;5052410;28;20632;-80
2022/03/10 02:31:26;;;;;;;12.27;7.30;;;;;;;1.03;99.62;99800.81;5052039;28;20200;-79
2022/03/10 02:33:55;;;;;;;38.57;14.47;;;;;;;0.91;99.27;99792.97;5052136;28;20734;-80
2022/03/10 02:36:21;;;;;;;27.57;11.63;;;;;;;0.58;100.00;99753.31;5051969;28;20196;-79
2022/03/10 02:38:48;;;;;;;8.10;5.73;;;;;;;0.88;100.00;99798.91;5052063;28;20703;-79
2022/03/10 02:41:17;;;;;;;9.03;6.23;;;;;;;0.88;99.72;99808.28;5051773;28;20239;-79
2022/03/10 02:43:44;;;;;;;13.13;8.17;;;;;;;0.73;100.00;99804.63;5052070;28;20200;-79
2022/03/10 02:46:11;;;;;;;8.03;6.23;;;;;;;0.75;99.38;99804.66;5051749;28;20274;-80
2022/03/10 02:48:38;;;;;;;8.67;6.03;;;;;;;0.70;99.88;99809.69;5051473;28;20248;-79
2022/03/10 02:51:04;;;;;;;13.43;7.23;;;;;;;0.72;99.77;99804.63;5051600;28;20199;-79
2022/03/10 02:53:31;;;;;;;14.10;7.73;;;;;;;0.71;100.00;99813.97;5051354;28;20208;-79
2022/03/10 02:55:58;;;;;;;13.33;7.67;;;;;;;0.62;100.00;99812.97;5051536;28;20202;-79
2022/03/10 02:58:26;;;;;;;17.63;9.73;;;;;;;0.46;100.00;99773.56;5051425;28;20299;-80
2022/03/10 03:00:54;;;;;;;5.67;4.60;;;;;;;0.70;100.00;99821.59;5051575;28;20197;-79
2022/03/10 03:03:20;;;;;;;5.67;5.07;;;;;;;0.27;100.00;99757.09;5051281;28;20258;-80
2022/03/10 03:05:47;;;;;;;8.03;5.50;;;;;;;0.57;100.00;99819.69;5051442;28;20194;-80
2022/03/10 03:08:14;;;;;;;27.53;12.23;;;;;;;0.56;100.00;99823.97;5050902;28;20221;-78
2022/03/10 03:10:41;;;;;;;16.73;8.57;;;;;;;0.58;100.00;99824.81;5050828;28;20201;-80
2022/03/10 03:13:08;;;;;;;23.03;10.53;;;;;;;0.52;100.00;99826.44;5050999;28;20226;-79
2022/03/10 03:15:37;;;;;;;7.77;6.07;;;;;;;0.34;100.00;99789.53;5051124;28;20200;-79
2022/03/10 03:18:04;;;;;;;7.10;5.53;;;;;;;0.60;100.00;99829.97;5050835;28;20238;-79
2022/03/10 03:20:31;;;;;;;22.60;9.30;;;;;;;0.62;100.00;99826.59;5050725;28;20200;-79
2022/03/10 03:22:58;;;;;;;9.43;5.93;;;;;;;0.57;100.00;99820.56;5051215;28;20201;-78
2022/03/10 03:25:25;;;;;;;6.40;4.93;;;;;;;0.48;100.00;99810.19;5051042;28;20201;-79
2022/03/10 03:27:51;;;;;;;10.90;5.60;;;;;;;0.59;100.00;99830.78;5051044;28;20226;-78
2022/03/10 03:30:18;;;;;;;12.73;7.17;;;;;;;0.16;100.00;99783.28;5050557;28;20199;-77
2022/03/10 03:32:47;;;;;;;8.97;6.33;;;;;;;0.31;100.00;99809.06;5050625;28;20199;-79
2022/03/10 03:35:15;;;;;;;33.70;13.13;;;;;;;0.32;100.00;99809.09;5050572;28;20200;-78
2022/03/10 03:37:42;;;;;;;8.23;6.17;;;;;;;0.42;100.00;99824.56;5050678;28;20571;-79
2022/03/10 03:40:11;;;;;;;19.17;8.87;;;;;;;0.46;100.00;99828.88;5050784;28;20661;-80
2022/03/10 03:42:38;;;;;;;9.87;6.23;;;;;;;0.48;100.00;99835.72;5050507;28;20228;-79
2022/03/10 03:45:06;;;;;;;27.30;11.60;;;;;;;0.44;100.00;99833.97;5050666;28;20192;-79
2022/03/10 03:47:33;;;;;;;18.57;8.57;;;;;;;0.25;100.00;99784.28;5050344;28;20228;-78
2022/03/10 03:50:01;;;;;;;12.30;6.87;;;;;;;0.60;100.00;99840.19;5050434;28;20205;-79
2022/03/10 03:52:28;;;;;;;9.03;6.00;;;;;;;0.51;100.00;99845.13;5050331;28;20204;-80
2022/03/10 03:54:55;;;;;;;8.50;5.73;;;;;;;0.18;100.00;99799.47;5050504;28;20687;-79
2022/03/10 03:57:22;;;;;;;12.87;6.50;;;;;;;0.45;100.00;99839.94;5050405;28;20208;-80
2022/03/10 03:59:49;;;;;;;32.37;11.53;;;;;;;0.40;100.00;99842.41;5050842;28;20222;-81
2022/03/10 04:02:16;;;;;;;16.90;7.77;;;;;;;0.35;100.00;99851.66;5068598;28;20728;-80
2022/03/10 04:04:42;;;;;;;7.53;5.30;;;;;;;0.42;100.00;99858.63;5069969;28;20583;-77
2022/03/10 04:07:11;;;;;;;20.07;9.17;;;;;;;0.36;100.00;99858.50;5069299;28;20218;-76
2022/03/10 04:09:38;;;;;;;27.93;10.83;;;;;;;0.41;100.00;99856.03;5068985;28;20200;-75
2022/03/10 04:12:05;;;;;;;21.57;9.77;;;;;;;0.36;100.00;99856.81;5069269;28;20206;-76
2022/03/10 04:14:32;;;;;;;20.37;9.17;;;;;;;0.28;100.00;99842.19;5068492;28;20207;-76
2022/03/10 04:16:59;;;;;;;9.63;7.37;;;;;;;0.27;100.00;99835.38;5068962;28;20203;-77
2022/03/10 04:19:26;;;;;;;11.70;7.60;;;;;;;0.16;100.00;99824.09;5068725;28;20192;-75
2022/03/10 04:21:53;;;;;;;11.60;7.57;;;;;;;0.50;100.00;99864.72;5068712;28;20559;-76
2022/03/10 04:24:21;;;;;;;12.43;8.50;;;;;;;0.41;100.00;99854.34;5068501;28;20195;-76
2022/03/10 04:26:48;;;;;;;32.53;12.67;;;;;;;0.58;100.00;99873.34;5068804;28;20305;-78
2022/03/10 04:29:15;;;;;;;13.60;8.27;;;;;;;0.48;100.00;99881.69;5068258;28;20686;-76
2022/03/10 04:31:42;;;;;;;8.00;6.03;;;;;;;0.40;100.00;99883.25;5062830;28;20211;-77
2022/03/10 04:34:09;;;;;;;8.83;5.37;;;;;;;0.10;100.00;99829.13;5064687;28;20268;-77
2022/03/10 04:36:36;;;;;;;4.70;4.30;;;;;;;0.32;100.00;99870.38;5068368;28;20202;-78
2022/03/10 04:39:04;;;;;;;10.30;7.00;;;;;;;0.53;100.00;99899.66;5067053;28;20214;-76
2022/03/10 04:41:34;;;;;;;10.57;6.50;;;;;;;0.51;100.00;99899.63;5069648;28;20243;-76
2022/03/10 04:44:00;;;;;;;11.30;6.70;;;;;;;0.58;100.00;99904.00;5069054;28;20198;-77
2022/03/10 04:46:27;;;;;;;6.77;5.90;;;;;;;0.49;100.00;99903.84;5071944;28;20194;-77
2022/03/10 04:48:54;;;;;;;147.33;32.50;;;;;;;0.58;100.00;99911.66;5072428;28;20250;-76
2022/03/10 04:51:21;;;;;;;68.57;26.87;;;;;;;0.64;100.00;99916.91;5072187;28;20195;-78
2022/03/10 04:53:48;;;;;;;19.37;10.23;;;;;;;0.65;100.00;99926.28;5072327;28;20200;-77
2022/03/10 04:56:15;;;;;;;6.97;5.60;;;;;;;0.56;100.00;99904.84;5072710;28;20207;-78
2022/03/10 04:58:43;;;;;;;7.10;6.10;;;;;;;0.76;99.35;99933.28;5072463;28;20278;-78
2022/03/10 05:01:12;;;;;;;7.80;6.03;;;;;;;0.91;98.42;99936.91;5072383;28;20190;-78
2022/03/10 05:03:39;;;;;;;11.07;7.80;;;;;;;1.01;100.00;99943.94;5072104;28;20199;-78
2022/03/10 05:06:06;;;;;;;9.90;8.00;;;;;;;1.11;100.00;99938.97;5072279;28;20713;-76
2022/03/10 05:08:33;;;;;;;7.57;6.60;;;;;;;1.12;99.62;99940.69;5071921;28;20215;-76
2022/03/10 05:11:00;;;;;;;11.00;9.67;;;;;;;1.19;100.00;99945.06;5070507;28;20196;-76
2022/03/10 05:13:27;;;;;;;6.43;5.50;;;;;;;1.22;96.69;99943.41;5073245;28;20206;-78
2022/03/10 05:15:55;;;;;;;8.77;6.47;;;;;;;1.34;95.09;99948.72;5073412;28;20554;-82
2022/03/10 05:18:22;;;;;;;8.80;6.37;;;;;;;1.14;97.99;99911.72;5073681;28;20204;-78
2022/03/10 05:20:49;;;;;;;8.40;6.27;;;;;;;1.51;92.30;99968.53;5073123;28;20203;-82
2022/03/10 05:23:16;;;;;;;7.70;5.63;;;;;;;1.26;92.88;99927.25;5073481;28;20569;-83
2022/03/10 05:25:43;;;;;;;7.50;6.33;;;;;;;1.53;93.31;99964.31;5073929;28;20460;-83
2022/03/10 05:28:13;;;;;;;7.47;6.27;;;;;;;1.66;92.14;99968.78;5074462;28;20274;-83
2022/03/10 05:30:41;;;;;;;10.67;7.63;;;;;;;1.54;92.03;99973.72;5074709;28;20184;-82
2022/03/10 05:33:10;;;;;;;27.07;11.30;;;;;;;1.45;95.11;99971.88;5074436;28;20192;-83
2022/03/10 05:35:37;;;;;;;12.67;9.67;;;;;;;1.36;96.25;99975.13;5074257;28;20576;-83
2022/03/10 05:38:05;;;;;;;13.70;8.70;;;;;;;1.73;95.98;99976.56;5073005;28;20207;-83
2022/03/10 05:40:32;;;;;;;14.30;10.43;;;;;;;2.71;91.63;99941.88;5074212;28;20238;-82
2022/03/10 05:42:59;;;;;;;16.57;10.13;;;;;;;3.95;86.33;99983.00;5074497;28;20310;-83
2022/03/10 05:45:26;;;;;;;17.23;10.40;;;;;;;5.47;82.49;99991.03;5074561;28;20229;-84
2022/03/10 05:47:55;;;;;;;11.33;8.30;;;;;;;6.86;74.67;99950.19;5075111;28;20228;-81
2022/03/10 06:46:26;;;;;;;8.40;7.60;;;;;;;20.01;32.00;99991.75;5077231;28;20269;-83
2022/03/10 06:48:53;;;;;;;8.05;7.25;;;;;;;19.30;32.45;100006.47;5086946;28;20247;-82
2022/03/10 06:51:19;;;;;;;8.82;8.13;;;;;;;16.87;35.24;100002.41;5092538;28;20202;-83
2022/03/10 06:53:46;;;;;;;9.48;8.70;;;;;;;15.19;38.38;100007.94;5088768;28;20223;-82
2022/03/10 06:56:13;;;;;;;11.88;8.15;;;;;;;14.69;39.87;100017.72;5091797;28;20770;-82
2022/03/10 06:58:42;;;;;;;8.73;8.10;;;;;;;15.67;38.70;100010.38;5091979;28;20233;-81
2022/03/10 07:01:09;;;;;;;8.60;7.77;;;;;;;16.96;36.03;100012.47;5090528;28;20219;-82
2022/03/10 07:03:38;;;;;;;8.85;8.13;;;;;;;17.02;34.33;99944.00;5090026;28;20733;-81
2022/03/10 07:06:05;;;;;;;8.40;7.70;;;;;;;18.64;32.14;100020.63;5090631;28;20227;-82
2022/03/10 07:08:32;;;;;;;7.80;6.90;;;;;;;19.96;29.94;100022.81;5090167;28;20229;-81
2022/03/10 07:10:58;;;;;;;9.93;7.63;;;;;;;20.47;29.11;100010.06;5090149;28;20215;-78
2022/03/10 07:13:25;;;;;;;8.43;7.63;;;;;;;20.76;29.03;99974.00;5087065;28;20703;-79
2022/03/10 07:15:52;;;;;;;7.28;6.72;;;;;;;21.79;28.04;100020.00;5090326;28;20223;-78
2022/03/10 07:18:19;;;;;;;7.97;7.38;;;;;;;22.05;28.02;100021.78;5089715;28;20211;-81
2022/03/10 07:20:48;;;;;;;8.13;7.53;;;;;;;20.80;28.52;100018.53;5087074;28;20303;-78
2022/03/10 07:23:15;;;;;;;7.72;7.07;;;;;;;20.69;28.73;100005.16;5088934;28;20238;-80
2022/03/10 07:25:43;;;;;;;7.05;6.55;;;;;;;19.32;30.65;100023.84;5089859;28;20905;-79
2022/03/10 07:28:10;;;;;;;7.47;6.93;;;;;;;20.07;29.40;99996.66;5090002;28;20230;-81
2022/03/10 07:30:37;;;;;;;7.50;7.00;;;;;;;20.52;28.56;100024.69;5090095;28;20215;-84
2022/03/10 07:33:04;;;;;;;7.35;6.85;;;;;;;17.47;31.92;100023.16;5089887;28;20215;-81
2022/03/10 07:35:31;;;;;;;7.85;7.15;;;;;;;15.12;35.34;100017.78;5089694;28;20215;-80
2022/03/10 07:37:59;;;;;;;7.80;7.17;;;;;;;12.84;40.12;100015.25;5090515;28;20231;-81
2022/03/10 07:40:26;;;;;;;8.07;7.37;;;;;;;10.12;45.78;100025.34;5091362;28;20231;-79
2022/03/10 07:42:53;;;;;;;7.80;7.00;;;;;;;8.69;49.92;99964.66;5090954;28;20268;-81
2022/03/10 07:45:20;;;;;;;9.00;8.10;;;;;;;8.71;53.48;100014.66;5091075;28;20235;-81
2022/03/10 07:47:47;;;;;;;8.47;7.63;;;;;;;8.11;54.64;99977.44;5090496;28;20689;-78
2022/03/10 07:50:14;;;;;;;9.13;7.93;;;;;;;7.85;55.33;100017.34;5091522;28;20272;-80
2022/03/10 07:52:41;;;;;;;8.20;7.50;;;;;;;7.75;54.52;100015.72;5090812;28;20219;-80
2022/03/10 07:55:13;;;;;;;10.47;9.33;;;;;;;7.32;55.47;100011.81;5090937;28;20223;-82
2022/03/10 07:57:40;;;;;;;14.47;8.63;;;;;;;7.04;56.25;99986.16;5091400;28;20219;-80
2022/03/10 08:00:08;;;;;;;8.37;7.63;;;;;;;6.95;57.71;99998.28;5091507;28;20703;-78
2022/03/10 08:02:35;;;;;;;9.33;7.67;;;;;;;6.10;58.48;99977.19;5090887;28;20309;-82
2022/03/10 08:05:02;;;;;;;8.33;7.63;;;;;;;6.24;59.70;100009.81;5090552;28;20522;-81
2022/03/10 08:07:32;;;;;;;7.13;6.47;;;;;;;5.75;57.91;100007.34;5090043;28;20230;-80
2022/03/10 08:09:59;;;;;;;8.87;6.17;;;;;;;5.77;58.15;100009.03;5090738;28;20612;-81
2022/03/10 08:12:29;;;;;;;6.90;6.07;;;;;;;5.49;57.87;100012.50;5090851;28;20225;-81
2022/03/10 08:14:56;;;;;;;7.63;6.43;;;;;;;5.82;59.47;100012.47;5089375;28;20229;-79
2022/03/10 08:17:23;;;;;;;10.13;7.20;;;;;;;5.79;61.73;100003.88;5090326;28;20223;-78
2022/03/10 08:19:50;;;;;;;8.27;7.10;;;;;;;6.03;61.92;100010.72;5089037;28;20211;-79
2022/03/10 08:22:17;;;;;;;6.80;6.23;;;;;;;5.41;64.36;99983.34;5088431;28;20219;-79
2022/03/10 08:24:44;;;;;;;7.93;7.07;;;;;;;5.36;65.64;100000.47;5088558;28;20215;-79
2022/03/10 08:27:11;;;;;;;9.23;7.00;;;;;;;5.16;63.37;99986.75;5088817;28;20257;-76
2022/03/10 08:29:40;;;;;;;9.60;6.87;;;;;;;5.36;60.58;100016.78;5087318;28;20482;-80
2022/03/10 08:32:08;;;;;;;8.57;6.60;;;;;;;5.41;59.69;100016.81;5088316;28;20710;-79
2022/03/10 08:34:36;;;;;;;6.43;5.67;;;;;;;5.62;57.54;99973.00;5088271;28;20766;-79
2022/03/10 08:37:03;;;;;;;7.13;6.47;;;;;;;5.69;57.57;99942.94;5088733;28;20231;-78
2022/03/10 08:39:30;;;;;;;9.47;7.63;;;;;;;5.54;56.98;99938.66;5089429;28;20226;-78
2022/03/10 08:41:57;;;;;;;11.80;7.17;;;;;;;5.55;56.93;100007.34;5090045;28;20219;-77
2022/03/10 08:44:24;;;;;;;9.40;6.60;;;;;;;5.70;56.47;100014.19;5089597;28;20298;-80
2022/03/10 08:46:52;;;;;;;8.30;6.40;;;;;;;5.72;56.38;100004.75;5089816;28;20253;-79
2022/03/10 08:49:19;;;;;;;6.97;5.43;;;;;;;5.76;55.88;100017.59;5089327;28;20231;-81
2022/03/10 08:51:48;;;;;;;5.83;5.30;;;;;;;6.05;55.43;100011.59;5089099;28;20215;-80
2022/03/10 08:54:15;;;;;;;5.67;5.17;;;;;;;5.90;51.72;99989.28;5089455;28;20229;-79
2022/03/10 08:56:42;;;;;;;9.50;6.03;;;;;;;6.13;53.06;100013.28;5089803;28;20229;-80
2022/03/10 08:59:09;;;;;;;9.30;6.37;;;;;;;6.24;53.58;100017.53;5089304;28;20674;-79
2022/03/10 09:01:36;;;;;;;6.80;5.83;;;;;;;6.18;51.54;100015.84;5089342;28;20222;-80
2022/03/10 09:04:05;;;;;;;6.73;5.60;;;;;;;5.64;50.45;99997.06;5088981;28;20273;-80
2022/03/10 09:06:32;;;;;;;5.20;4.70;;;;;;;5.36;51.37;99972.16;5088782;28;20231;-80
2022/03/10 09:09:00;;;;;;;8.90;7.37;;;;;;;5.67;52.66;99986.72;5089574;28;20231;-80
2022/03/10 09:11:27;;;;;;;4.83;4.43;;;;;;;5.54;51.11;100008.19;5089227;28;20238;-80
2022/03/10 09:13:54;;;;;;;5.83;4.60;;;;;;;5.39;49.84;100005.63;5089911;28;20219;-80
2022/03/10 09:16:22;;;;;;;4.43;4.03;;;;;;;5.43;50.07;100008.19;5089561;28;20654;-81
2022/03/10 09:18:50;;;;;;;5.33;4.93;;;;;;;5.20;51.23;100011.63;5089706;28;20208;-81
2022/03/10 09:21:19;;;;;;;9.17;5.07;;;;;;;5.23;50.61;100009.06;5089943;28;20206;-82
2022/03/10 09:23:46;;;;;;;5.47;4.90;;;;;;;5.63;50.15;100015.94;5090288;28;20192;-82
2022/03/10 09:26:13;;;;;;;5.97;5.23;;;;;;;5.45;52.35;100016.78;5090481;28;20208;-83
2022/03/10 09:28:41;;;;;;;5.67;5.17;;;;;;;5.38;51.50;100014.22;5093684;28;20331;-83
2022/03/10 09:31:10;;;;;;;6.23;5.63;;;;;;;5.41;51.79;99973.03;5093554;28;20565;-83
2022/03/10 09:33:37;;;;;;;5.40;4.90;;;;;;;5.50;50.42;99967.03;5093620;28;20203;-82
2022/03/10 09:36:04;;;;;;;6.30;5.67;;;;;;;5.86;50.87;100015.91;5093064;28;20667;-83
2022/03/10 09:38:32;;;;;;;5.10;4.70;;;;;;;5.72;48.54;100020.22;5093084;28;20206;-83
2022/03/10 09:40:59;;;;;;;5.00;4.50;;;;;;;5.82;46.98;100011.59;5092407;28;20196;-81
2022/03/10 09:43:29;;;;;;;6.43;5.10;;;;;;;5.46;48.22;99967.00;5092137;28;20194;-83
2022/03/10 09:46:49;;;;;;;6.73;4.97;;;;;;;5.75;47.85;100010.78;5093238;28;20202;-83
2022/03/10 09:49:16;;;;;;;14.00;5.80;;;;;;;5.97;48.24;100018.50;5073214;28;20306;-83
2022/03/10 09:51:43;;;;;;;4.60;4.30;;;;;;;5.89;47.99;100013.34;5072880;28;20196;-82
2022/03/10 09:54:12;;;;;;;6.10;5.40;;;;;;;5.80;49.23;100009.03;5062498;28;20200;-82
2022/03/10 09:56:42;;;;;;;7.87;5.60;;;;;;;5.44;49.65;99962.72;5071629;28;20195;-81
2022/03/10 09:59:09;;;;;;;8.77;5.90;;;;;;;5.58;50.10;100007.34;5066305;28;20196;-81
2022/03/10 10:01:37;;;;;;;5.77;5.17;;;;;;;5.81;48.84;100013.31;5072348;28;20195;-83
2022/03/10 10:04:04;;;;;;;6.03;5.53;;;;;;;6.09;47.92;100008.16;5072527;28;20222;-84
2022/03/10 10:06:31;;;;;;;5.60;5.10;;;;;;;6.11;49.23;100009.84;5072581;28;20657;-82
2022/03/10 10:08:58;;;;;;;5.77;5.27;;;;;;;5.94;46.91;99960.09;5072390;28;20219;-83
2022/03/10 10:11:34;;;;;;;4.83;4.43;;;;;;;6.14;46.46;100021.88;5072307;28;20212;-83
2022/03/10 10:14:01;;;;;;;4.90;4.43;;;;;;;5.67;46.93;99986.72;5052897;28;20203;-84
2022/03/10 10:16:28;;;;;;;7.03;4.90;;;;;;;5.88;47.32;100013.28;5052591;28;20199;-83
2022/03/10 10:18:56;;;;;;;4.47;4.03;;;;;;;5.65;48.22;100024.50;5062275;28;20203;-84
2022/03/10 10:21:25;;;;;;;5.33;4.83;;;;;;;5.15;50.89;99996.19;5073172;28;20629;-84
2022/03/10 10:23:55;;;;;;;5.03;4.30;;;;;;;5.43;50.81;100015.06;5082635;28;20322;-84
2022/03/10 10:26:26;;;;;;;5.60;4.40;;;;;;;5.56;50.93;100008.19;5085396;28;20199;-89
2022/03/10 10:28:55;;;;;;;6.23;4.03;;;;;;;5.55;49.38;100029.66;5078833;28;20730;-86
2022/03/10 10:31:24;;;;;;;4.27;3.97;;;;;;;5.22;50.10;99986.75;5073502;28;20286;-82
2022/03/10 10:34:00;;;;;;;4.47;4.07;;;;;;;5.27;50.03;100023.66;5072254;28;20200;-84
2022/03/10 10:36:28;;;;;;;5.00;4.50;;;;;;;5.33;50.51;100021.06;5068981;28;20225;-83
2022/03/10 10:38:56;;;;;;;4.70;4.27;;;;;;;5.20;51.18;99998.75;5070956;28;20230;-83
2022/03/10 10:41:25;;;;;;;5.13;4.60;;;;;;;4.96;51.65;100004.75;5070793;28;20220;-83
2022/03/10 10:43:56;;;;;;;5.03;4.50;;;;;;;5.00;51.25;100015.03;5072048;28;20600;-83
2022/03/10 10:46:34;;;;;;;4.47;4.13;;;;;;;5.00;50.64;100003.88;5072562;28;20196;-84
2022/03/10 10:49:05;;;;;;;4.33;4.03;;;;;;;4.80;51.04;99998.72;5071938;28;20618;-84
2022/03/10 10:51:39;;;;;;;6.97;6.37;;;;;;;4.81;50.42;99994.44;5071116;28;20200;-84
2022/03/10 10:54:09;;;;;;;5.00;4.50;;;;;;;4.93;50.76;99985.03;5071926;28;20187;-84
2022/03/10 10:56:46;;;;;;;5.00;4.53;;;;;;;4.86;50.95;99983.28;5071561;28;20192;-86
2022/03/10 10:59:28;;;;;;;4.63;4.07;;;;;;;4.97;50.79;99984.16;5070222;28;20671;-86
2022/03/10 11:02:06;;;;;;;7.47;4.43;;;;;;;5.15;49.65;99990.19;5070483;28;20202;-84
2022/03/10 11:04:33;;;;;;;5.07;4.57;;;;;;;5.19;48.29;99979.06;5070160;28;20188;-85
2022/03/10 11:07:00;;;;;;;4.90;3.77;;;;;;;5.46;48.76;99985.03;5071170;28;20572;-84
2022/03/10 11:09:27;;;;;;;5.00;4.50;;;;;;;5.30;49.19;99929.28;5072049;28;20220;-78
2022/03/10 11:11:54;;;;;;;4.10;3.80;;;;;;;5.85;46.46;99975.53;5070927;28;20279;-79
2022/03/10 11:14:21;;;;;;;6.83;4.33;;;;;;;5.52;46.79;99949.84;5071012;28;20203;-79
2022/03/10 11:16:50;;;;;;;4.73;3.70;;;;;;;5.23;47.79;99906.13;5070881;28;20199;-79
2022/03/10 11:19:20;;;;;;;3.83;3.53;;;;;;;5.44;51.15;99997.03;5070403;28;20196;-79
2022/03/10 11:22:12;;;;;;;4.20;3.90;;;;;;;5.25;54.25;99989.34;5071106;28;20203;-79
2022/03/10 11:25:02;;;;;;;7.23;4.30;;;;;;;4.95;58.31;99993.59;5060329;28;20663;-80
2022/03/10 11:27:34;;;;;;;3.97;3.57;;;;;;;4.34;58.37;99997.72;5070991;28;20282;-79
2022/03/10 11:30:02;;;;;;;5.07;3.90;;;;;;;4.02;59.78;100007.84;5070771;28;20246;-79
2022/03/10 11:32:32;;;;;;;5.80;4.13;;;;;;;3.68;62.46;99985.38;5070439;28;20192;-79
2022/03/10 11:35:00;;;;;;;8.40;4.83;;;;;;;3.59;62.39;99969.09;5070857;28;20199;-79
2022/03/10 11:37:51;;;;;;;5.63;3.60;;;;;;;3.58;60.06;99981.91;5070815;28;20199;-79
2022/03/10 11:40:20;;;;;;;4.17;3.63;;;;;;;3.63;60.66;99995.59;5070482;28;20192;-79
2022/03/10 11:42:59;;;;;;;5.93;5.33;;;;;;;3.62;58.19;99989.63;5070857;28;20512;-79
2022/03/10 11:45:31;;;;;;;6.40;5.80;;;;;;;3.81;57.32;99998.31;5070543;28;20199;-79
2022/03/10 11:48:36;;;;;;;18.77;5.83;;;;;;;3.83;56.18;99993.19;5070551;28;20231;-79
2022/03/10 11:51:18;;;;;;;3.67;3.37;;;;;;;3.93;53.69;99989.81;5069842;28;20191;-79
2022/03/10 11:53:55;;;;;;;4.40;4.00;;;;;;;3.83;53.73;99944.41;5070304;28;20196;-79
2022/03/10 11:56:57;;;;;;;7.10;6.40;;;;;;;4.23;53.46;99976.25;5071212;28;20195;-85
2022/03/10 11:59:25;;;;;;;9.23;7.00;;;;;;;4.49;53.20;99992.63;5070911;28;20582;-84
2022/03/10 12:01:53;;;;;;;13.53;7.67;;;;;;;4.60;52.55;99987.53;5070755;28;20196;-85
2022/03/10 12:04:22;;;;;;;5.17;4.47;;;;;;;4.48;53.53;100002.91;5070815;28;20635;-83
2022/03/10 12:06:54;;;;;;;4.23;3.80;;;;;;;4.16;52.00;99961.69;5070951;28;20200;-85
2022/03/10 12:09:29;;;;;;;4.70;3.60;;;;;;;4.07;53.13;99961.63;5070575;28;20616;-85
2022/03/10 12:12:13;;;;;;;3.60;3.30;;;;;;;3.91;54.87;99970.97;5070690;28;20198;-84
2022/03/10 12:14:40;;;;;;;3.50;3.20;;;;;;;3.94;55.68;100009.53;5070592;28;20226;-84
2022/03/10 12:17:45;;;;;;;3.40;3.10;;;;;;;4.08;53.81;100005.28;5070797;28;20195;-84
2022/03/10 12:20:15;;;;;;;3.60;3.30;;;;;;;4.14;52.50;100005.34;5070138;28;20202;-84
2022/03/10 12:23:12;;;;;;;5.00;3.47;;;;;;;4.08;54.01;100009.56;5070457;28;20192;-84
2022/03/10 12:25:41;;;;;;;3.40;3.07;;;;;;;3.89;54.83;100004.34;5070497;28;20196;-84
2022/03/10 12:28:08;;;;;;;4.03;3.37;;;;;;;3.69;54.47;99964.84;5070270;28;20196;-83
2022/03/10 12:30:41;;;;;;;5.53;3.60;;;;;;;3.92;54.99;99978.69;5070627;28;20324;-84
2022/03/10 12:33:08;;;;;;;4.20;3.90;;;;;;;3.97;53.63;99958.16;5070592;28;20204;-83
2022/03/10 12:35:38;;;;;;;4.03;3.73;;;;;;;4.50;52.48;100008.91;5070504;28;20275;-84
2022/03/10 12:38:06;;;;;;;3.60;3.27;;;;;;;4.63;50.63;100006.38;5070474;28;20206;-84
2022/03/10 12:40:35;;;;;;;6.47;3.77;;;;;;;4.56;49.47;99962.66;5070642;28;20588;-84